sensor_id;sensor_type;location;lat;lon;timestamp;P1;durP1;ratioP1;P2;durP2;ratioP2
63046;SDS011;62025;39.238;9.126;2023-05-07T00:00:38;9.18;;;4.07;;
63046;SDS011;62025;39.238;9.126;2023-05-07T00:03:05;10.88;;;4.75;;
63046;SDS011;62025;39.238;9.126;2023-05-07T00:05:31;5.50;;;4.13;;
63046;SDS011;62025;39.238;9.126;2023-05-07T00:07:57;4.97;;;3.63;;
63046;SDS011;62025;39.238;9.126;2023-05-07T00:10:23;8.45;;;4.25;;
63046;SDS011;62025;39.238;9.126;2023-05-07T00:12:50;4.78;;;3.63;;
63046;SDS011;62025;39.238;9.126;2023-05-07T00:15:16;7.20;;;4.25;;
63046;SDS011;62025;39.238;9.126;2023-05-07T00:17:42;6.00;;;4.20;;
63046;SDS011;62025;39.238;9.126;2023-05-07T00:20:08;6.55;;;4.15;;
63046;SDS011;62025;39.238;9.126;2023-05-07T00:22:35;6.90;;;4.60;;
63046;SDS011;62025;39.238;9.126;2023-05-07T00:25:00;5.13;;;4.10;;
63046;SDS011;62025;39.238;9.126;2023-05-07T00:27:26;4.90;;;4.28;;
63046;SDS011;62025;39.238;9.126;2023-05-07T00:29:52;4.70;;;3.90;;
63046;SDS011;62025;39.238;9.126;2023-05-07T00:32:18;4.55;;;3.88;;
63046;SDS011;62025;39.238;9.126;2023-05-07T00:34:45;6.18;;;4.10;;
63046;SDS011;62025;39.238;9.126;2023-05-07T00:37:10;7.47;;;4.15;;
63046;SDS011;62025;39.238;9.126;2023-05-07T00:39:37;5.43;;;4.22;;
63046;SDS011;62025;39.238;9.126;2023-05-07T00:42:03;6.35;;;4.32;;
63046;SDS011;62025;39.238;9.126;2023-05-07T00:44:29;5.20;;;4.18;;
63046;SDS011;62025;39.238;9.126;2023-05-07T00:46:56;9.40;;;4.57;;
63046;SDS011;62025;39.238;9.126;2023-05-07T00:49:24;6.90;;;4.00;;
63046;SDS011;62025;39.238;9.126;2023-05-07T00:52:08;7.43;;;4.28;;
63046;SDS011;62025;39.238;9.126;2023-05-07T00:54:38;5.65;;;4.20;;
63046;SDS011;62025;39.238;9.126;2023-05-07T00:57:06;4.85;;;4.30;;
63046;SDS011;62025;39.238;9.126;2023-05-07T00:59:36;5.18;;;4.50;;
63046;SDS011;62025;39.238;9.126;2023-05-07T01:02:03;7.25;;;3.83;;
63046;SDS011;62025;39.238;9.126;2023-05-07T01:04:29;5.70;;;4.55;;
63046;SDS011;62025;39.238;9.126;2023-05-07T01:06:55;7.68;;;5.18;;
63046;SDS011;62025;39.238;9.126;2023-05-07T01:09:26;7.90;;;4.53;;
63046;SDS011;62025;39.238;9.126;2023-05-07T01:11:54;7.15;;;4.50;;
63046;SDS011;62025;39.238;9.126;2023-05-07T01:14:22;6.72;;;4.28;;
63046;SDS011;62025;39.238;9.126;2023-05-07T01:16:49;6.22;;;4.60;;
63046;SDS011;62025;39.238;9.126;2023-05-07T01:19:18;6.45;;;4.72;;
63046;SDS011;62025;39.238;9.126;2023-05-07T01:21:46;4.95;;;4.28;;
63046;SDS011;62025;39.238;9.126;2023-05-07T01:24:15;6.10;;;4.35;;
63046;SDS011;62025;39.238;9.126;2023-05-07T01:26:45;5.68;;;4.25;;
63046;SDS011;62025;39.238;9.126;2023-05-07T01:29:13;5.60;;;4.28;;
63046;SDS011;62025;39.238;9.126;2023-05-07T01:31:39;4.53;;;4.10;;
63046;SDS011;62025;39.238;9.126;2023-05-07T01:34:08;16.20;;;5.50;;
63046;SDS011;62025;39.238;9.126;2023-05-07T01:36:37;5.57;;;4.85;;
63046;SDS011;62025;39.238;9.126;2023-05-07T01:39:05;4.95;;;4.40;;
63046;SDS011;62025;39.238;9.126;2023-05-07T01:41:32;7.20;;;4.25;;
63046;SDS011;62025;39.238;9.126;2023-05-07T01:43:58;7.00;;;4.88;;
63046;SDS011;62025;39.238;9.126;2023-05-07T01:46:26;6.57;;;4.60;;
63046;SDS011;62025;39.238;9.126;2023-05-07T01:48:53;5.10;;;4.20;;
63046;SDS011;62025;39.238;9.126;2023-05-07T01:51:18;6.95;;;4.35;;
63046;SDS011;62025;39.238;9.126;2023-05-07T01:53:46;6.03;;;4.40;;
63046;SDS011;62025;39.238;9.126;2023-05-07T01:56:17;6.60;;;4.60;;
63046;SDS011;62025;39.238;9.126;2023-05-07T01:58:45;5.85;;;4.63;;
63046;SDS011;62025;39.238;9.126;2023-05-07T02:01:12;8.18;;;4.70;;
63046;SDS011;62025;39.238;9.126;2023-05-07T02:03:39;5.18;;;4.45;;
63046;SDS011;62025;39.238;9.126;2023-05-07T02:06:12;6.43;;;4.28;;
63046;SDS011;62025;39.238;9.126;2023-05-07T02:08:39;7.22;;;4.57;;
63046;SDS011;62025;39.238;9.126;2023-05-07T02:11:05;6.53;;;4.40;;
63046;SDS011;62025;39.238;9.126;2023-05-07T02:13:32;6.65;;;4.50;;
63046;SDS011;62025;39.238;9.126;2023-05-07T02:16:02;8.45;;;4.43;;
63046;SDS011;62025;39.238;9.126;2023-05-07T02:18:29;6.18;;;4.65;;
63046;SDS011;62025;39.238;9.126;2023-05-07T02:20:55;5.22;;;4.32;;
63046;SDS011;62025;39.238;9.126;2023-05-07T02:23:21;9.10;;;4.53;;
63046;SDS011;62025;39.238;9.126;2023-05-07T02:25:48;6.43;;;4.38;;
63046;SDS011;62025;39.238;9.126;2023-05-07T02:28:14;5.95;;;3.67;;
63046;SDS011;62025;39.238;9.126;2023-05-07T02:30:49;8.38;;;4.15;;
63046;SDS011;62025;39.238;9.126;2023-05-07T02:33:16;5.95;;;4.40;;
63046;SDS011;62025;39.238;9.126;2023-05-07T02:35:42;5.45;;;4.25;;
63046;SDS011;62025;39.238;9.126;2023-05-07T02:38:09;5.63;;;4.45;;
63046;SDS011;62025;39.238;9.126;2023-05-07T02:40:37;5.20;;;4.35;;
63046;SDS011;62025;39.238;9.126;2023-05-07T02:43:05;6.32;;;4.43;;
63046;SDS011;62025;39.238;9.126;2023-05-07T02:45:32;4.15;;;3.75;;
63046;SDS011;62025;39.238;9.126;2023-05-07T02:47:59;7.05;;;3.72;;
63046;SDS011;62025;39.238;9.126;2023-05-07T02:50:25;4.93;;;3.47;;
63046;SDS011;62025;39.238;9.126;2023-05-07T02:52:52;4.22;;;3.75;;
63046;SDS011;62025;39.238;9.126;2023-05-07T02:55:19;5.28;;;3.50;;
63046;SDS011;62025;39.238;9.126;2023-05-07T02:57:45;4.50;;;3.90;;
63046;SDS011;62025;39.238;9.126;2023-05-07T03:00:12;5.22;;;4.07;;
63046;SDS011;62025;39.238;9.126;2023-05-07T03:02:45;4.18;;;3.60;;
63046;SDS011;62025;39.238;9.126;2023-05-07T03:05:11;5.40;;;3.70;;
63046;SDS011;62025;39.238;9.126;2023-05-07T03:07:39;4.57;;;3.50;;
63046;SDS011;62025;39.238;9.126;2023-05-07T03:10:09;5.57;;;3.60;;
63046;SDS011;62025;39.238;9.126;2023-05-07T03:12:35;4.82;;;3.63;;
63046;SDS011;62025;39.238;9.126;2023-05-07T03:15:01;5.43;;;3.40;;
63046;SDS011;62025;39.238;9.126;2023-05-07T03:17:27;4.57;;;3.47;;
63046;SDS011;62025;39.238;9.126;2023-05-07T03:19:53;5.10;;;3.50;;
63046;SDS011;62025;39.238;9.126;2023-05-07T03:22:20;6.13;;;3.55;;
63046;SDS011;62025;39.238;9.126;2023-05-07T03:24:46;5.80;;;3.47;;
63046;SDS011;62025;39.238;9.126;2023-05-07T03:27:12;4.80;;;3.25;;
63046;SDS011;62025;39.238;9.126;2023-05-07T03:29:38;7.40;;;3.22;;
63046;SDS011;62025;39.238;9.126;2023-05-07T03:32:04;4.97;;;3.70;;
63046;SDS011;62025;39.238;9.126;2023-05-07T03:34:31;3.65;;;3.30;;
63046;SDS011;62025;39.238;9.126;2023-05-07T03:36:57;6.20;;;3.63;;
63046;SDS011;62025;39.238;9.126;2023-05-07T03:39:23;4.05;;;3.50;;
63046;SDS011;62025;39.238;9.126;2023-05-07T03:41:49;3.47;;;3.17;;
63046;SDS011;62025;39.238;9.126;2023-05-07T03:44:15;5.03;;;3.42;;
63046;SDS011;62025;39.238;9.126;2023-05-07T03:46:41;3.55;;;2.95;;
63046;SDS011;62025;39.238;9.126;2023-05-07T03:49:09;4.13;;;3.20;;
63046;SDS011;62025;39.238;9.126;2023-05-07T03:51:35;4.15;;;3.38;;
63046;SDS011;62025;39.238;9.126;2023-05-07T03:54:04;3.90;;;3.25;;
63046;SDS011;62025;39.238;9.126;2023-05-07T03:56:31;4.50;;;3.45;;
63046;SDS011;62025;39.238;9.126;2023-05-07T03:58:59;4.38;;;3.53;;
63046;SDS011;62025;39.238;9.126;2023-05-07T04:01:26;5.30;;;3.50;;
63046;SDS011;62025;39.238;9.126;2023-05-07T04:03:53;4.75;;;3.72;;
63046;SDS011;62025;39.238;9.126;2023-05-07T04:06:19;4.15;;;3.67;;
63046;SDS011;62025;39.238;9.126;2023-05-07T04:08:47;5.03;;;3.42;;
63046;SDS011;62025;39.238;9.126;2023-05-07T04:11:13;5.45;;;3.40;;
63046;SDS011;62025;39.238;9.126;2023-05-07T04:13:39;4.88;;;3.80;;
63046;SDS011;62025;39.238;9.126;2023-05-07T04:16:07;4.88;;;3.90;;
63046;SDS011;62025;39.238;9.126;2023-05-07T04:18:35;3.83;;;3.40;;
63046;SDS011;62025;39.238;9.126;2023-05-07T04:21:01;4.68;;;3.60;;
63046;SDS011;62025;39.238;9.126;2023-05-07T04:23:27;4.75;;;3.58;;
63046;SDS011;62025;39.238;9.126;2023-05-07T04:25:55;4.43;;;3.47;;
63046;SDS011;62025;39.238;9.126;2023-05-07T04:28:31;5.75;;;3.60;;
63046;SDS011;62025;39.238;9.126;2023-05-07T04:30:57;5.38;;;3.50;;
63046;SDS011;62025;39.238;9.126;2023-05-07T04:33:24;7.80;;;3.80;;
63046;SDS011;62025;39.238;9.126;2023-05-07T04:35:50;7.30;;;3.65;;
63046;SDS011;62025;39.238;9.126;2023-05-07T04:38:16;7.15;;;3.67;;
63046;SDS011;62025;39.238;9.126;2023-05-07T04:43:16;7.90;;;3.50;;
63046;SDS011;62025;39.238;9.126;2023-05-07T04:45:47;6.15;;;3.70;;
63046;SDS011;62025;39.238;9.126;2023-05-07T04:48:14;4.78;;;3.28;;
63046;SDS011;62025;39.238;9.126;2023-05-07T04:50:41;4.38;;;3.78;;
63046;SDS011;62025;39.238;9.126;2023-05-07T04:53:08;5.97;;;3.70;;
63046;SDS011;62025;39.238;9.126;2023-05-07T04:55:35;6.00;;;3.65;;
63046;SDS011;62025;39.238;9.126;2023-05-07T04:58:02;5.85;;;3.95;;
63046;SDS011;62025;39.238;9.126;2023-05-07T05:00:30;5.72;;;3.75;;
63046;SDS011;62025;39.238;9.126;2023-05-07T05:02:57;4.93;;;3.53;;
63046;SDS011;62025;39.238;9.126;2023-05-07T05:05:24;5.18;;;3.53;;
63046;SDS011;62025;39.238;9.126;2023-05-07T05:07:52;4.75;;;3.83;;
63046;SDS011;62025;39.238;9.126;2023-05-07T05:10:19;7.53;;;3.70;;
63046;SDS011;62025;39.238;9.126;2023-05-07T05:12:45;5.22;;;3.78;;
63046;SDS011;62025;39.238;9.126;2023-05-07T05:15:11;4.57;;;3.70;;
63046;SDS011;62025;39.238;9.126;2023-05-07T05:17:38;3.65;;;3.30;;
63046;SDS011;62025;39.238;9.126;2023-05-07T05:20:05;3.30;;;3.00;;
63046;SDS011;62025;39.238;9.126;2023-05-07T05:22:33;5.18;;;3.60;;
63046;SDS011;62025;39.238;9.126;2023-05-07T05:25:00;5.93;;;3.47;;
63046;SDS011;62025;39.238;9.126;2023-05-07T05:27:26;3.40;;;3.10;;
63046;SDS011;62025;39.238;9.126;2023-05-07T05:29:53;4.00;;;3.30;;
63046;SDS011;62025;39.238;9.126;2023-05-07T05:32:20;5.25;;;3.38;;
63046;SDS011;62025;39.238;9.126;2023-05-07T05:34:46;3.50;;;2.72;;
63046;SDS011;62025;39.238;9.126;2023-05-07T05:37:12;5.35;;;3.30;;
63046;SDS011;62025;39.238;9.126;2023-05-07T05:39:38;5.93;;;3.15;;
63046;SDS011;62025;39.238;9.126;2023-05-07T05:42:06;5.95;;;3.75;;
63046;SDS011;62025;39.238;9.126;2023-05-07T05:44:34;4.40;;;3.53;;
63046;SDS011;62025;39.238;9.126;2023-05-07T05:47:00;4.43;;;3.53;;
63046;SDS011;62025;39.238;9.126;2023-05-07T05:49:28;4.88;;;3.25;;
63046;SDS011;62025;39.238;9.126;2023-05-07T05:51:54;3.85;;;3.45;;
63046;SDS011;62025;39.238;9.126;2023-05-07T05:54:22;5.75;;;3.55;;
63046;SDS011;62025;39.238;9.126;2023-05-07T05:56:48;6.40;;;4.00;;
63046;SDS011;62025;39.238;9.126;2023-05-07T05:59:14;4.32;;;3.60;;
63046;SDS011;62025;39.238;9.126;2023-05-07T06:01:41;4.95;;;3.90;;
63046;SDS011;62025;39.238;9.126;2023-05-07T06:04:07;4.40;;;3.72;;
63046;SDS011;62025;39.238;9.126;2023-05-07T06:06:33;6.03;;;3.72;;
63046;SDS011;62025;39.238;9.126;2023-05-07T06:09:01;5.70;;;4.03;;
63046;SDS011;62025;39.238;9.126;2023-05-07T06:11:34;6.95;;;4.00;;
63046;SDS011;62025;39.238;9.126;2023-05-07T06:14:01;5.28;;;4.10;;
63046;SDS011;62025;39.238;9.126;2023-05-07T06:16:28;4.15;;;3.70;;
63046;SDS011;62025;39.238;9.126;2023-05-07T06:18:56;4.38;;;3.67;;
63046;SDS011;62025;39.238;9.126;2023-05-07T06:21:23;4.32;;;3.50;;
63046;SDS011;62025;39.238;9.126;2023-05-07T06:23:49;4.00;;;3.60;;
63046;SDS011;62025;39.238;9.126;2023-05-07T06:26:17;6.82;;;3.30;;
63046;SDS011;62025;39.238;9.126;2023-05-07T06:31:17;4.63;;;3.33;;
63046;SDS011;62025;39.238;9.126;2023-05-07T06:33:55;3.72;;;3.40;;
63046;SDS011;62025;39.238;9.126;2023-05-07T06:36:26;3.08;;;2.78;;
63046;SDS011;62025;39.238;9.126;2023-05-07T06:38:55;3.35;;;3.05;;
63046;SDS011;62025;39.238;9.126;2023-05-07T06:41:21;4.63;;;2.90;;
63046;SDS011;62025;39.238;9.126;2023-05-07T06:43:48;3.08;;;2.78;;
63046;SDS011;62025;39.238;9.126;2023-05-07T06:46:35;3.95;;;2.85;;
63046;SDS011;62025;39.238;9.126;2023-05-07T06:49:03;5.03;;;2.72;;
63046;SDS011;62025;39.238;9.126;2023-05-07T06:51:29;3.20;;;2.85;;
63046;SDS011;62025;39.238;9.126;2023-05-07T06:54:00;3.28;;;2.90;;
63046;SDS011;62025;39.238;9.126;2023-05-07T06:56:26;3.83;;;3.15;;
63046;SDS011;62025;39.238;9.126;2023-05-07T06:58:52;4.72;;;2.63;;
63046;SDS011;62025;39.238;9.126;2023-05-07T07:01:20;4.47;;;2.88;;
63046;SDS011;62025;39.238;9.126;2023-05-07T07:03:46;2.92;;;2.60;;
63046;SDS011;62025;39.238;9.126;2023-05-07T07:06:12;3.28;;;2.97;;
63046;SDS011;62025;39.238;9.126;2023-05-07T07:08:38;3.10;;;2.80;;
63046;SDS011;62025;39.238;9.126;2023-05-07T07:11:05;4.28;;;2.60;;
63046;SDS011;62025;39.238;9.126;2023-05-07T07:13:33;3.72;;;2.75;;
63046;SDS011;62025;39.238;9.126;2023-05-07T07:15:59;3.58;;;2.70;;
63046;SDS011;62025;39.238;9.126;2023-05-07T07:18:26;4.75;;;2.63;;
63046;SDS011;62025;39.238;9.126;2023-05-07T07:20:53;4.80;;;2.83;;
63046;SDS011;62025;39.238;9.126;2023-05-07T07:23:19;2.45;;;2.25;;
63046;SDS011;62025;39.238;9.126;2023-05-07T07:25:46;3.65;;;2.83;;
63046;SDS011;62025;39.238;9.126;2023-05-07T07:28:12;3.15;;;2.85;;
63046;SDS011;62025;39.238;9.126;2023-05-07T07:30:38;3.17;;;2.88;;
63046;SDS011;62025;39.238;9.126;2023-05-07T07:33:05;4.93;;;2.67;;
63046;SDS011;62025;39.238;9.126;2023-05-07T07:35:34;3.13;;;2.63;;
63046;SDS011;62025;39.238;9.126;2023-05-07T07:38:01;2.83;;;2.63;;
63046;SDS011;62025;39.238;9.126;2023-05-07T07:40:28;3.25;;;2.70;;
63046;SDS011;62025;39.238;9.126;2023-05-07T07:42:56;3.00;;;2.70;;
63046;SDS011;62025;39.238;9.126;2023-05-07T07:45:23;2.70;;;2.50;;
63046;SDS011;62025;39.238;9.126;2023-05-07T07:47:50;2.60;;;2.40;;
63046;SDS011;62025;39.238;9.126;2023-05-07T07:50:16;3.65;;;2.60;;
63046;SDS011;62025;39.238;9.126;2023-05-07T07:52:43;3.08;;;2.78;;
63046;SDS011;62025;39.238;9.126;2023-05-07T07:55:12;2.90;;;2.60;;
63046;SDS011;62025;39.238;9.126;2023-05-07T07:57:39;4.35;;;3.20;;
63046;SDS011;62025;39.238;9.126;2023-05-07T08:00:05;3.88;;;3.08;;
63046;SDS011;62025;39.238;9.126;2023-05-07T08:02:41;4.35;;;3.00;;
63046;SDS011;62025;39.238;9.126;2023-05-07T08:05:08;3.15;;;2.72;;
63046;SDS011;62025;39.238;9.126;2023-05-07T08:07:35;2.95;;;2.70;;
63046;SDS011;62025;39.238;9.126;2023-05-07T08:10:01;4.43;;;3.15;;
63046;SDS011;62025;39.238;9.126;2023-05-07T08:12:27;3.33;;;2.35;;
63046;SDS011;62025;39.238;9.126;2023-05-07T08:14:54;3.78;;;3.22;;
63046;SDS011;62025;39.238;9.126;2023-05-07T08:17:20;3.65;;;2.90;;
63046;SDS011;62025;39.238;9.126;2023-05-07T08:19:48;2.88;;;2.63;;
63046;SDS011;62025;39.238;9.126;2023-05-07T08:22:14;3.03;;;2.80;;
63046;SDS011;62025;39.238;9.126;2023-05-07T08:24:41;6.05;;;3.88;;
63046;SDS011;62025;39.238;9.126;2023-05-07T08:27:07;2.92;;;2.40;;
63046;SDS011;62025;39.238;9.126;2023-05-07T08:29:33;2.47;;;2.28;;
63046;SDS011;62025;39.238;9.126;2023-05-07T08:31:59;2.60;;;2.40;;
63046;SDS011;62025;39.238;9.126;2023-05-07T08:34:26;3.08;;;2.33;;
63046;SDS011;62025;39.238;9.126;2023-05-07T08:36:54;3.40;;;2.58;;
63046;SDS011;62025;39.238;9.126;2023-05-07T08:39:22;3.72;;;3.00;;
63046;SDS011;62025;39.238;9.126;2023-05-07T08:41:51;4.63;;;2.90;;
63046;SDS011;62025;39.238;9.126;2023-05-07T08:44:25;4.00;;;2.85;;
63046;SDS011;62025;39.238;9.126;2023-05-07T08:46:56;2.70;;;2.50;;
63046;SDS011;62025;39.238;9.126;2023-05-07T08:49:27;3.25;;;2.30;;
63046;SDS011;62025;39.238;9.126;2023-05-07T08:51:54;3.85;;;2.60;;
63046;SDS011;62025;39.238;9.126;2023-05-07T08:54:21;2.92;;;2.60;;
63046;SDS011;62025;39.238;9.126;2023-05-07T08:56:47;3.95;;;2.70;;
63046;SDS011;62025;39.238;9.126;2023-05-07T08:59:14;3.92;;;2.70;;
63046;SDS011;62025;39.238;9.126;2023-05-07T09:01:42;3.28;;;2.55;;
63046;SDS011;62025;39.238;9.126;2023-05-07T09:04:08;3.30;;;2.72;;
63046;SDS011;62025;39.238;9.126;2023-05-07T09:06:36;3.35;;;3.05;;
63046;SDS011;62025;39.238;9.126;2023-05-07T09:09:08;4.05;;;2.70;;
63046;SDS011;62025;39.238;9.126;2023-05-07T09:11:34;3.45;;;2.65;;
63046;SDS011;62025;39.238;9.126;2023-05-07T09:14:01;3.38;;;2.50;;
63046;SDS011;62025;39.238;9.126;2023-05-07T09:16:32;3.00;;;2.50;;
63046;SDS011;62025;39.238;9.126;2023-05-07T09:18:59;4.03;;;2.60;;
63046;SDS011;62025;39.238;9.126;2023-05-07T09:21:26;4.20;;;2.85;;
63046;SDS011;62025;39.238;9.126;2023-05-07T09:23:55;5.03;;;2.60;;
63046;SDS011;62025;39.238;9.126;2023-05-07T09:26:27;2.75;;;2.28;;
63046;SDS011;62025;39.238;9.126;2023-05-07T09:28:54;2.97;;;2.30;;
63046;SDS011;62025;39.238;9.126;2023-05-07T09:31:20;4.95;;;2.70;;
63046;SDS011;62025;39.238;9.126;2023-05-07T09:33:49;5.28;;;3.08;;
63046;SDS011;62025;39.238;9.126;2023-05-07T09:36:16;3.22;;;2.92;;
63046;SDS011;62025;39.238;9.126;2023-05-07T09:38:43;5.78;;;2.80;;
63046;SDS011;62025;39.238;9.126;2023-05-07T09:53:06;3.17;;;2.90;;
63046;SDS011;62025;39.238;9.126;2023-05-07T09:55:35;4.28;;;2.70;;
63046;SDS011;62025;39.238;9.126;2023-05-07T09:58:03;4.80;;;2.60;;
63046;SDS011;62025;39.238;9.126;2023-05-07T10:00:31;7.78;;;2.72;;
63046;SDS011;62025;39.238;9.126;2023-05-07T10:03:07;3.13;;;2.10;;
63046;SDS011;62025;39.238;9.126;2023-05-07T10:05:51;3.63;;;2.35;;
63046;SDS011;62025;39.238;9.126;2023-05-07T10:08:20;2.60;;;2.22;;
63046;SDS011;62025;39.238;9.126;2023-05-07T10:10:49;2.60;;;2.40;;
63046;SDS011;62025;39.238;9.126;2023-05-07T10:13:19;2.38;;;2.17;;
63046;SDS011;62025;39.238;9.126;2023-05-07T10:15:49;4.70;;;2.30;;
63046;SDS011;62025;39.238;9.126;2023-05-07T10:18:17;2.65;;;2.35;;
63046;SDS011;62025;39.238;9.126;2023-05-07T10:20:49;2.75;;;2.35;;
63046;SDS011;62025;39.238;9.126;2023-05-07T10:23:19;6.95;;;2.75;;
63046;SDS011;62025;39.238;9.126;2023-05-07T10:25:50;3.45;;;2.70;;
63046;SDS011;62025;39.238;9.126;2023-05-07T10:28:21;4.53;;;2.50;;
63046;SDS011;62025;39.238;9.126;2023-05-07T10:33:34;6.57;;;4.88;;
63046;SDS011;62025;39.238;9.126;2023-05-07T10:38:33;4.75;;;2.90;;
63046;SDS011;62025;39.238;9.126;2023-05-07T10:41:01;3.80;;;2.60;;
63046;SDS011;62025;39.238;9.126;2023-05-07T10:43:41;2.75;;;2.50;;
63046;SDS011;62025;39.238;9.126;2023-05-07T10:46:14;4.47;;;2.30;;
63046;SDS011;62025;39.238;9.126;2023-05-07T10:57:48;6.18;;;2.78;;
63046;SDS011;62025;39.238;9.126;2023-05-07T11:05:30;6.97;;;2.20;;
63046;SDS011;62025;39.238;9.126;2023-05-07T11:08:23;4.20;;;2.38;;
63046;SDS011;62025;39.238;9.126;2023-05-07T11:11:03;3.83;;;2.75;;
63046;SDS011;62025;39.238;9.126;2023-05-07T11:16:37;5.35;;;2.72;;
63046;SDS011;62025;39.238;9.126;2023-05-07T11:19:15;4.80;;;2.70;;
63046;SDS011;62025;39.238;9.126;2023-05-07T11:21:46;4.80;;;2.70;;
63046;SDS011;62025;39.238;9.126;2023-05-07T11:24:20;6.45;;;2.63;;
63046;SDS011;62025;39.238;9.126;2023-05-07T11:26:52;8.52;;;2.80;;
63046;SDS011;62025;39.238;9.126;2023-05-07T11:29:21;5.05;;;2.78;;
63046;SDS011;62025;39.238;9.126;2023-05-07T11:31:49;7.13;;;2.53;;
63046;SDS011;62025;39.238;9.126;2023-05-07T11:34:22;5.47;;;3.42;;
63046;SDS011;62025;39.238;9.126;2023-05-07T11:36:53;10.70;;;2.80;;
63046;SDS011;62025;39.238;9.126;2023-05-07T11:39:31;3.97;;;2.63;;
63046;SDS011;62025;39.238;9.126;2023-05-07T11:42:01;6.38;;;3.05;;
63046;SDS011;62025;39.238;9.126;2023-05-07T11:44:43;7.75;;;3.00;;
63046;SDS011;62025;39.238;9.126;2023-05-07T11:47:11;5.63;;;2.58;;
63046;SDS011;62025;39.238;9.126;2023-05-07T11:49:42;6.20;;;3.20;;
63046;SDS011;62025;39.238;9.126;2023-05-07T11:52:14;5.50;;;2.88;;
63046;SDS011;62025;39.238;9.126;2023-05-07T11:54:48;7.93;;;3.07;;
63046;SDS011;62025;39.238;9.126;2023-05-07T11:57:21;3.38;;;2.53;;
63046;SDS011;62025;39.238;9.126;2023-05-07T11:59:52;4.97;;;2.60;;
63046;SDS011;62025;39.238;9.126;2023-05-07T12:02:23;4.97;;;2.40;;
63046;SDS011;62025;39.238;9.126;2023-05-07T12:04:54;4.03;;;2.70;;
63046;SDS011;62025;39.238;9.126;2023-05-07T12:07:20;5.05;;;2.50;;
63046;SDS011;62025;39.238;9.126;2023-05-07T12:09:47;7.60;;;2.72;;
63046;SDS011;62025;39.238;9.126;2023-05-07T12:12:13;5.70;;;2.80;;
63046;SDS011;62025;39.238;9.126;2023-05-07T12:14:41;6.25;;;2.70;;
63046;SDS011;62025;39.238;9.126;2023-05-07T12:17:09;3.58;;;2.45;;
63046;SDS011;62025;39.238;9.126;2023-05-07T12:19:38;3.25;;;2.17;;
63046;SDS011;62025;39.238;9.126;2023-05-07T12:22:07;2.60;;;2.25;;
63046;SDS011;62025;39.238;9.126;2023-05-07T12:27:16;2.35;;;2.15;;
63046;SDS011;62025;39.238;9.126;2023-05-07T12:29:44;3.50;;;2.17;;
63046;SDS011;62025;39.238;9.126;2023-05-07T12:32:14;6.32;;;2.45;;
63046;SDS011;62025;39.238;9.126;2023-05-07T12:34:47;3.80;;;2.28;;
63046;SDS011;62025;39.238;9.126;2023-05-07T12:37:16;7.32;;;2.20;;
63046;SDS011;62025;39.238;9.126;2023-05-07T12:39:49;4.25;;;2.15;;
63046;SDS011;62025;39.238;9.126;2023-05-07T12:42:35;4.35;;;2.20;;
63046;SDS011;62025;39.238;9.126;2023-05-07T12:45:09;3.50;;;2.25;;
63046;SDS011;62025;39.238;9.126;2023-05-07T12:47:37;4.53;;;2.13;;
63046;SDS011;62025;39.238;9.126;2023-05-07T12:50:05;3.47;;;2.20;;
63046;SDS011;62025;39.238;9.126;2023-05-07T12:52:32;4.78;;;1.98;;
63046;SDS011;62025;39.238;9.126;2023-05-07T12:55:04;3.38;;;1.90;;
63046;SDS011;62025;39.238;9.126;2023-05-07T12:57:45;3.72;;;1.83;;
63046;SDS011;62025;39.238;9.126;2023-05-07T13:00:14;4.15;;;1.98;;
63046;SDS011;62025;39.238;9.126;2023-05-07T13:02:41;5.40;;;2.00;;
63046;SDS011;62025;39.238;9.126;2023-05-07T13:05:11;6.20;;;2.05;;
63046;SDS011;62025;39.238;9.126;2023-05-07T13:07:37;2.83;;;1.92;;
63046;SDS011;62025;39.238;9.126;2023-05-07T13:10:05;2.65;;;1.70;;
63046;SDS011;62025;39.238;9.126;2023-05-07T13:12:32;6.70;;;1.90;;
63046;SDS011;62025;39.238;9.126;2023-05-07T13:14:58;3.72;;;2.15;;
63046;SDS011;62025;39.238;9.126;2023-05-07T13:17:24;2.90;;;1.92;;
63046;SDS011;62025;39.238;9.126;2023-05-07T13:19:50;3.75;;;2.08;;
63046;SDS011;62025;39.238;9.126;2023-05-07T13:22:16;4.22;;;2.10;;
63046;SDS011;62025;39.238;9.126;2023-05-07T13:24:42;4.95;;;1.95;;
63046;SDS011;62025;39.238;9.126;2023-05-07T13:27:08;4.82;;;2.17;;
63046;SDS011;62025;39.238;9.126;2023-05-07T13:29:34;3.80;;;1.90;;
63046;SDS011;62025;39.238;9.126;2023-05-07T13:32:00;3.78;;;1.80;;
63046;SDS011;62025;39.238;9.126;2023-05-07T13:34:27;3.60;;;1.83;;
63046;SDS011;62025;39.238;9.126;2023-05-07T13:36:53;5.80;;;2.20;;
63046;SDS011;62025;39.238;9.126;2023-05-07T13:39:20;1.90;;;1.63;;
63046;SDS011;62025;39.238;9.126;2023-05-07T13:41:46;2.90;;;1.90;;
63046;SDS011;62025;39.238;9.126;2023-05-07T13:44:12;2.00;;;1.48;;
63046;SDS011;62025;39.238;9.126;2023-05-07T13:46:38;3.83;;;1.90;;
63046;SDS011;62025;39.238;9.126;2023-05-07T13:49:04;4.95;;;1.60;;
63046;SDS011;62025;39.238;9.126;2023-05-07T13:51:30;2.28;;;1.60;;
63046;SDS011;62025;39.238;9.126;2023-05-07T13:53:56;3.25;;;1.67;;
63046;SDS011;62025;39.238;9.126;2023-05-07T13:56:23;1.90;;;1.63;;
63046;SDS011;62025;39.238;9.126;2023-05-07T13:58:49;3.22;;;1.50;;
63046;SDS011;62025;39.238;9.126;2023-05-07T14:01:15;1.85;;;1.40;;
63046;SDS011;62025;39.238;9.126;2023-05-07T14:03:41;4.30;;;1.63;;
63046;SDS011;62025;39.238;9.126;2023-05-07T14:06:07;2.60;;;1.52;;
63046;SDS011;62025;39.238;9.126;2023-05-07T14:08:33;4.55;;;1.40;;
63046;SDS011;62025;39.238;9.126;2023-05-07T14:10:59;3.53;;;1.33;;
63046;SDS011;62025;39.238;9.126;2023-05-07T14:13:25;3.05;;;1.40;;
63046;SDS011;62025;39.238;9.126;2023-05-07T14:15:55;3.90;;;1.23;;
63046;SDS011;62025;39.238;9.126;2023-05-07T14:18:21;2.25;;;1.30;;
63046;SDS011;62025;39.238;9.126;2023-05-07T14:20:47;3.17;;;1.52;;
63046;SDS011;62025;39.238;9.126;2023-05-07T14:23:14;2.28;;;1.60;;
63046;SDS011;62025;39.238;9.126;2023-05-07T14:25:42;3.03;;;1.38;;
63046;SDS011;62025;39.238;9.126;2023-05-07T14:28:08;3.95;;;1.40;;
63046;SDS011;62025;39.238;9.126;2023-05-07T14:30:35;4.32;;;1.60;;
63046;SDS011;62025;39.238;9.126;2023-05-07T14:33:01;3.78;;;1.60;;
63046;SDS011;62025;39.238;9.126;2023-05-07T14:35:26;2.85;;;1.25;;
63046;SDS011;62025;39.238;9.126;2023-05-07T14:37:52;2.55;;;1.42;;
63046;SDS011;62025;39.238;9.126;2023-05-07T14:40:18;1.63;;;1.27;;
63046;SDS011;62025;39.238;9.126;2023-05-07T14:42:44;3.17;;;1.50;;
63046;SDS011;62025;39.238;9.126;2023-05-07T14:45:10;2.78;;;1.20;;
63046;SDS011;62025;39.238;9.126;2023-05-07T14:47:36;3.53;;;1.30;;
63046;SDS011;62025;39.238;9.126;2023-05-07T14:50:02;2.75;;;1.60;;
63046;SDS011;62025;39.238;9.126;2023-05-07T14:52:29;2.45;;;1.48;;
63046;SDS011;62025;39.238;9.126;2023-05-07T14:54:55;4.70;;;1.20;;
63046;SDS011;62025;39.238;9.126;2023-05-07T14:57:21;2.15;;;1.30;;
63046;SDS011;62025;39.238;9.126;2023-05-07T14:59:47;2.47;;;1.30;;
63046;SDS011;62025;39.238;9.126;2023-05-07T15:02:13;3.95;;;1.40;;
63046;SDS011;62025;39.238;9.126;2023-05-07T15:04:40;2.40;;;1.25;;
63046;SDS011;62025;39.238;9.126;2023-05-07T15:07:14;6.88;;;1.75;;
63046;SDS011;62025;39.238;9.126;2023-05-07T15:09:41;2.22;;;1.35;;
63046;SDS011;62025;39.238;9.126;2023-05-07T15:12:08;2.63;;;1.48;;
63046;SDS011;62025;39.238;9.126;2023-05-07T15:14:34;3.80;;;1.38;;
63046;SDS011;62025;39.238;9.126;2023-05-07T15:17:00;1.83;;;1.30;;
63046;SDS011;62025;39.238;9.126;2023-05-07T15:19:26;2.85;;;1.20;;
63046;SDS011;62025;39.238;9.126;2023-05-07T15:21:54;1.92;;;1.33;;
63046;SDS011;62025;39.238;9.126;2023-05-07T15:24:23;4.13;;;1.40;;
63046;SDS011;62025;39.238;9.126;2023-05-07T15:26:49;3.42;;;1.50;;
63046;SDS011;62025;39.238;9.126;2023-05-07T15:29:17;5.22;;;2.10;;
63046;SDS011;62025;39.238;9.126;2023-05-07T15:31:43;2.00;;;1.50;;
63046;SDS011;62025;39.238;9.126;2023-05-07T15:34:09;3.50;;;1.73;;